createdAt,value
2022-12-23T00:00:17.643Z,10.17
2022-12-23T00:02:45.677Z,11.73
2022-12-23T00:05:13.609Z,12.90
2022-12-23T00:07:41.015Z,10.90
2022-12-23T00:10:08.748Z,10.97
2022-12-23T00:12:54.932Z,11.30
2022-12-23T00:15:22.280Z,11.00
2022-12-23T00:17:49.787Z,11.97
2022-12-23T00:20:17.254Z,13.63
2022-12-23T00:23:03.303Z,11.63
2022-12-23T00:25:44.795Z,13.00
2022-12-23T00:28:19.630Z,11.83
2022-12-23T00:30:48.566Z,12.87
2022-12-23T00:33:16.791Z,12.57
2022-12-23T00:35:44.803Z,12.03
2022-12-23T00:38:12.855Z,13.33
2022-12-23T00:40:59.247Z,12.47
2022-12-23T00:43:26.598Z,12.93
2022-12-23T00:45:54.182Z,13.43
2022-12-23T00:48:40.348Z,13.37
2022-12-23T00:51:07.833Z,13.93
2022-12-23T00:53:35.155Z,13.20
2022-12-23T00:56:02.597Z,13.60
2022-12-23T00:58:31.880Z,13.20
2022-12-23T01:01:18.198Z,13.00
2022-12-23T01:04:04.471Z,13.17
2022-12-23T01:06:32.547Z,12.17
2022-12-23T01:08:59.905Z,13.77
2022-12-23T01:11:27.281Z,13.23
2022-12-23T01:13:54.649Z,13.17
2022-12-23T01:16:21.978Z,13.60
2022-12-23T01:18:49.356Z,13.20
2022-12-23T01:21:16.721Z,12.83
2022-12-23T01:23:44.132Z,12.53
2022-12-23T01:26:11.817Z,12.27
2022-12-23T01:28:39.131Z,12.30
2022-12-23T01:31:07.054Z,12.33
2022-12-23T01:33:34.384Z,12.23
2022-12-23T01:36:06.050Z,11.50
2022-12-23T01:38:33.913Z,11.30
2022-12-23T01:41:01.566Z,11.70
2022-12-23T01:43:49.098Z,12.47
2022-12-23T01:46:16.794Z,12.30
2022-12-23T01:48:49.641Z,11.53
2022-12-23T01:51:23.615Z,13.10
2022-12-23T01:53:52.956Z,12.33
2022-12-23T01:56:27.562Z,12.57
2022-12-23T01:58:57.789Z,13.90
2022-12-23T02:01:45.354Z,15.40
2022-12-23T02:04:15.260Z,13.63
2022-12-23T02:07:03.757Z,13.10
2022-12-23T02:09:35.701Z,16.97
2022-12-23T02:12:16.416Z,17.27
2022-12-23T02:15:12.604Z,16.97
2022-12-23T02:17:43.407Z,19.60
2022-12-23T02:20:16.860Z,18.20
2022-12-23T02:22:47.577Z,19.97
2022-12-23T02:25:35.368Z,21.43
2022-12-23T02:28:10.831Z,21.00
2022-12-23T02:30:45.721Z,22.53
2022-12-23T02:33:16.099Z,21.03
2022-12-23T02:36:02.417Z,22.77
2022-12-23T02:38:31.957Z,20.80
2022-12-23T02:41:23.823Z,22.40
2022-12-23T02:43:57.438Z,20.87
2022-12-23T02:46:31.394Z,21.50
2022-12-23T02:49:05.538Z,19.43
2022-12-23T02:51:34.880Z,21.23
2022-12-23T02:54:03.976Z,21.07
2022-12-23T02:56:32.485Z,19.33
2022-12-23T02:59:06.213Z,19.20
2022-12-23T03:01:34.306Z,17.13
2022-12-23T03:04:01.834Z,16.93
2022-12-23T03:06:32.201Z,14.93
2022-12-23T03:09:00.636Z,15.83
2022-12-23T03:11:49.152Z,15.13
2022-12-23T03:14:29.860Z,13.47
2022-12-23T03:17:09.179Z,15.93
2022-12-23T03:19:40.809Z,13.70
2022-12-23T03:22:10.989Z,15.73
2022-12-23T03:25:04.020Z,14.27
2022-12-23T03:27:37.154Z,13.13
2022-12-23T03:30:06.791Z,13.93
2022-12-23T03:32:35.245Z,11.40
2022-12-23T03:35:03.336Z,11.40
2022-12-23T03:37:33.060Z,10.87
2022-12-23T03:40:04.286Z,10.50
2022-12-23T03:42:35.272Z,10.30
2022-12-23T03:45:36.954Z,7.77
2022-12-23T03:47:53.864Z,10.17
2022-12-23T03:50:23.004Z,10.00
2022-12-23T03:52:58.495Z,9.80
2022-12-23T03:55:28.334Z,10.73
2022-12-23T03:58:18.991Z,9.07
2022-12-23T04:00:52.005Z,8.93
2022-12-23T04:03:35.630Z,9.70
2022-12-23T04:06:06.169Z,8.27
2022-12-23T04:08:37.921Z,9.10
2022-12-23T04:11:05.681Z,8.17
2022-12-23T04:13:33.282Z,9.63
2022-12-23T04:16:01.404Z,9.93
2022-12-23T04:18:29.187Z,8.97
2022-12-23T04:20:56.452Z,8.33
2022-12-23T04:23:23.693Z,8.03
2022-12-23T04:25:50.998Z,9.00
2022-12-23T04:28:18.337Z,8.30
2022-12-23T04:30:45.535Z,7.90
2022-12-23T04:33:13.186Z,8.33
2022-12-23T04:35:40.420Z,7.73
2022-12-23T04:38:08.217Z,9.57
2022-12-23T04:40:35.465Z,8.83
2022-12-23T04:43:02.708Z,8.60
2022-12-23T04:45:29.990Z,8.43
2022-12-23T04:47:57.600Z,8.93
2022-12-23T04:50:24.866Z,10.27
2022-12-23T04:52:52.137Z,9.27
2022-12-23T04:55:19.424Z,8.93
2022-12-23T04:57:46.729Z,7.83
2022-12-23T05:00:14.252Z,7.93
2022-12-23T05:02:41.552Z,7.57
2022-12-23T05:05:08.908Z,7.07
2022-12-23T05:07:36.110Z,3.73
2022-12-23T05:10:03.482Z,5.17
2022-12-23T05:12:31.362Z,3.73
2022-12-23T05:15:01.357Z,3.30
2022-12-23T05:17:28.630Z,3.63
2022-12-23T05:19:55.882Z,3.90
2022-12-23T05:22:23.099Z,4.47
2022-12-23T05:24:50.367Z,4.40
2022-12-23T05:27:17.616Z,5.00
2022-12-23T05:29:44.893Z,5.23
2022-12-23T05:32:12.176Z,5.83
2022-12-23T05:34:39.433Z,4.83
2022-12-23T05:37:06.985Z,5.23
2022-12-23T05:39:34.257Z,6.07
2022-12-23T05:42:01.446Z,5.13
2022-12-23T05:44:28.711Z,5.93
2022-12-23T05:46:55.992Z,6.13
2022-12-23T05:49:23.217Z,6.63
2022-12-23T05:51:50.669Z,6.47
2022-12-23T05:54:17.934Z,6.23
2022-12-23T05:56:45.183Z,5.73
2022-12-23T05:59:12.802Z,6.43
2022-12-23T06:01:40.137Z,6.67
2022-12-23T06:04:07.636Z,6.77
2022-12-23T06:06:35.082Z,6.70
2022-12-23T06:09:02.357Z,7.70
2022-12-23T06:11:29.601Z,8.70
2022-12-23T06:13:56.826Z,8.00
2022-12-23T06:16:24.105Z,7.50
2022-12-23T06:18:54.598Z,7.57
2022-12-23T06:21:21.798Z,8.10
2022-12-23T06:23:49.027Z,7.60
2022-12-23T06:26:16.212Z,7.80
2022-12-23T06:28:43.437Z,8.00
2022-12-23T06:31:10.850Z,7.57
2022-12-23T06:33:38.082Z,8.53
2022-12-23T06:36:05.521Z,8.67
2022-12-23T06:38:32.735Z,8.63
2022-12-23T06:41:00.006Z,8.17
2022-12-23T06:43:27.193Z,8.90
2022-12-23T06:45:54.508Z,8.70
2022-12-23T06:48:21.842Z,8.90
2022-12-23T06:50:49.130Z,8.70
2022-12-23T06:53:16.395Z,9.00
2022-12-23T06:55:44.960Z,8.93
2022-12-23T06:58:12.213Z,8.50
2022-12-23T07:00:39.477Z,8.10
2022-12-23T07:03:06.849Z,8.33
2022-12-23T07:05:37.704Z,8.80
2022-12-23T07:08:05.585Z,10.10
2022-12-23T07:10:32.877Z,9.43
2022-12-23T07:13:00.124Z,9.50
2022-12-23T07:15:27.355Z,10.10
2022-12-23T07:17:55.110Z,10.30
2022-12-23T07:20:22.332Z,9.63
2022-12-23T07:22:53.184Z,10.80
2022-12-23T07:25:20.396Z,13.63
2022-12-23T07:27:47.666Z,10.77
2022-12-23T07:30:14.969Z,11.17
2022-12-23T07:32:42.223Z,10.83
2022-12-23T07:35:09.506Z,10.97
2022-12-23T07:37:36.784Z,13.63
2022-12-23T07:40:08.589Z,11.07
2022-12-23T07:42:46.313Z,10.30
2022-12-23T07:45:14.399Z,12.83
2022-12-23T07:47:41.863Z,12.70
2022-12-23T07:50:09.871Z,13.43
2022-12-23T07:52:37.216Z,19.53
2022-12-23T07:55:05.371Z,12.80
2022-12-23T07:57:37.760Z,19.90
2022-12-23T08:00:05.905Z,24.80
2022-12-23T08:02:39.997Z,14.80
2022-12-23T08:05:07.913Z,15.30
2022-12-23T08:07:35.217Z,14.10
2022-12-23T08:10:02.432Z,13.83
2022-12-23T08:12:29.724Z,17.55
2022-12-23T08:14:57.042Z,15.87
2022-12-23T08:17:27.270Z,15.10
2022-12-23T08:19:54.564Z,13.53
2022-12-23T08:22:21.856Z,12.63
2022-12-23T08:24:49.073Z,13.57
2022-12-23T08:27:16.336Z,13.37
2022-12-23T08:29:43.687Z,13.77
2022-12-23T08:32:10.904Z,13.73
2022-12-23T08:34:38.182Z,16.92
2022-12-23T08:37:05.446Z,16.20
2022-12-23T08:39:32.721Z,14.50
2022-12-23T08:41:59.945Z,15.07
2022-12-23T08:44:27.985Z,14.67
2022-12-23T08:46:55.812Z,15.60
2022-12-23T08:49:23.398Z,16.00
2022-12-23T08:51:50.784Z,16.20
2022-12-23T08:54:20.247Z,15.80
2022-12-23T08:56:47.564Z,16.90
2022-12-23T08:59:19.262Z,16.40
2022-12-23T09:01:47.704Z,16.47
2022-12-23T09:04:15.288Z,16.43
2022-12-23T09:06:43.236Z,18.27
2022-12-23T09:09:12.142Z,16.30
2022-12-23T09:11:40.006Z,15.77
2022-12-23T09:14:10.037Z,15.93
2022-12-23T09:16:37.397Z,15.63
2022-12-23T09:19:04.962Z,16.33
2022-12-23T09:21:32.323Z,16.93
2022-12-23T09:23:59.522Z,16.40
2022-12-23T09:26:28.126Z,15.73
2022-12-23T09:28:55.408Z,15.10
2022-12-23T09:31:23.260Z,15.17
2022-12-23T09:33:52.230Z,14.83
2022-12-23T09:36:19.693Z,15.57
2022-12-23T09:38:46.994Z,14.67
2022-12-23T09:41:21.036Z,16.93
2022-12-23T09:43:48.396Z,16.47
2022-12-23T09:46:15.912Z,16.03
2022-12-23T09:48:50.350Z,15.77
2022-12-23T09:51:20.662Z,16.87
2022-12-23T09:54:16.565Z,16.27
2022-12-23T09:57:01.219Z,15.53
2022-12-23T09:59:43.666Z,16.50
2022-12-23T10:02:22.094Z,15.57
2022-12-23T10:04:49.551Z,14.57
2022-12-23T10:07:19.825Z,13.63
2022-12-23T10:09:48.683Z,12.47
2022-12-23T10:12:28.277Z,11.10
2022-12-23T10:14:59.375Z,9.97
2022-12-23T10:17:29.006Z,12.02
2022-12-23T10:19:58.990Z,11.83
2022-12-23T10:22:30.467Z,12.10
2022-12-23T10:24:58.413Z,10.47
2022-12-23T10:27:39.861Z,7.90
2022-12-23T10:30:50.965Z,7.87
2022-12-23T10:33:05.974Z,8.77
2022-12-23T10:35:36.388Z,9.90
2022-12-23T10:38:11.860Z,11.13
2022-12-23T10:40:58.327Z,11.03
2022-12-23T10:43:32.434Z,10.13
2022-12-23T10:46:23.286Z,9.10
2022-12-23T10:49:09.320Z,9.77
2022-12-23T10:51:46.786Z,10.57
2022-12-23T10:54:18.525Z,11.60
2022-12-23T10:56:45.780Z,11.93
2022-12-23T10:59:15.544Z,12.27
2022-12-23T11:01:44.686Z,12.70
2022-12-23T11:04:16.856Z,14.47
2022-12-23T11:07:10.709Z,13.50
2022-12-23T11:09:39.464Z,13.20
2022-12-23T11:12:08.152Z,14.00
2022-12-23T11:14:35.361Z,16.30
2022-12-23T11:17:05.008Z,14.00
2022-12-23T11:19:32.618Z,13.70
2022-12-23T11:22:01.106Z,13.87
2022-12-23T11:24:34.440Z,14.30
2022-12-23T11:27:07.460Z,13.73
2022-12-23T11:29:36.238Z,13.67
2022-12-23T11:32:05.672Z,12.47
2022-12-23T11:34:39.024Z,13.50
2022-12-23T11:37:07.765Z,13.03
2022-12-23T11:39:37.173Z,13.77
2022-12-23T11:42:16.786Z,13.67
2022-12-23T11:44:46.335Z,15.17
2022-12-23T11:47:23.002Z,14.70
2022-12-23T11:49:55.232Z,12.97
2022-12-23T11:52:23.716Z,12.57
2022-12-23T11:54:55.705Z,15.07
2022-12-23T11:57:35.087Z,14.50
2022-12-23T12:00:03.467Z,17.23
2022-12-23T12:02:36.237Z,15.50
2022-12-23T12:05:09.848Z,14.00
2022-12-23T12:07:37.162Z,14.57
2022-12-23T12:10:04.746Z,14.13
2022-12-23T12:12:33.345Z,13.43
2022-12-23T12:15:11.262Z,13.73
2022-12-23T12:17:38.490Z,14.43
2022-12-23T12:20:29.076Z,13.47
2022-12-23T12:23:14.838Z,13.90
2022-12-23T12:25:44.344Z,13.73
2022-12-23T12:28:14.239Z,14.80
2022-12-23T12:30:47.668Z,14.87
2022-12-23T12:33:24.105Z,15.57
2022-12-23T12:36:03.331Z,15.17
2022-12-23T12:38:32.758Z,14.33
2022-12-23T12:41:07.776Z,15.20
2022-12-23T12:43:36.495Z,15.20
2022-12-23T12:46:07.034Z,15.20
2022-12-23T12:48:54.097Z,14.83
2022-12-23T12:51:24.555Z,15.77
2022-12-23T12:54:02.727Z,15.87
2022-12-23T12:56:35.822Z,14.07
2022-12-23T12:59:04.248Z,11.63
2022-12-23T13:01:40.784Z,12.47
2022-12-23T13:04:25.005Z,12.27
2022-12-23T13:06:57.310Z,13.20
2022-12-23T13:09:24.509Z,11.63
2022-12-23T13:11:54.603Z,13.17
2022-12-23T13:14:27.729Z,13.50
2022-12-23T13:17:04.124Z,13.50
2022-12-23T13:19:48.984Z,13.17
2022-12-23T13:22:17.523Z,15.37
2022-12-23T13:24:56.755Z,14.17
2022-12-23T13:27:41.298Z,15.77
2022-12-23T13:30:13.997Z,16.83
2022-12-23T13:32:44.331Z,15.97
2022-12-23T13:35:23.843Z,16.50
2022-12-23T13:37:51.229Z,16.00
2022-12-23T13:40:28.601Z,15.73
2022-12-23T13:42:58.636Z,15.43
2022-12-23T13:45:31.799Z,16.13
2022-12-23T13:48:09.528Z,16.57
2022-12-23T13:50:36.802Z,15.30
2022-12-23T13:53:07.112Z,17.57
2022-12-23T13:55:53.356Z,18.63
2022-12-23T13:58:22.116Z,18.10
2022-12-23T14:00:59.997Z,20.20
2022-12-23T14:03:33.733Z,18.90
2022-12-23T14:06:19.202Z,18.33
2022-12-23T14:08:47.564Z,20.50
2022-12-23T14:11:24.661Z,18.87
2022-12-23T14:13:51.951Z,20.47
2022-12-23T14:16:47.523Z,21.23
2022-12-23T14:19:24.445Z,18.77
2022-12-23T14:22:09.974Z,20.13
2022-12-23T14:25:05.581Z,19.93
2022-12-23T14:27:51.361Z,20.67
2022-12-23T14:30:36.821Z,21.13
2022-12-23T14:33:06.248Z,22.17
2022-12-23T14:35:40.350Z,20.63
2022-12-23T14:38:15.819Z,20.57
2022-12-23T14:40:43.167Z,22.03
2022-12-23T14:43:22.939Z,22.43
2022-12-23T14:45:51.578Z,26.13
2022-12-23T14:48:34.096Z,21.03
2022-12-23T14:51:04.515Z,21.60
2022-12-23T14:53:34.061Z,20.67
2022-12-23T14:56:11.828Z,19.97
2022-12-23T14:58:47.675Z,20.37
2022-12-23T15:01:19.941Z,20.20
2022-12-23T15:03:49.342Z,19.97
2022-12-23T15:06:26.801Z,18.60
2022-12-23T15:08:55.031Z,20.60
2022-12-23T15:11:25.435Z,20.23
2022-12-23T15:13:53.862Z,20.03
2022-12-23T15:16:29.224Z,21.20
2022-12-23T15:18:57.205Z,19.00
2022-12-23T15:21:29.415Z,19.60
2022-12-23T15:23:56.979Z,19.60
2022-12-23T15:26:26.462Z,20.60
2022-12-23T15:28:54.074Z,19.17
2022-12-23T15:31:32.869Z,20.23
2022-12-23T15:34:04.712Z,20.03
2022-12-23T15:36:36.192Z,21.27
2022-12-23T15:39:09.611Z,29.53
2022-12-23T15:41:44.176Z,19.90
2022-12-23T15:44:22.391Z,22.70
2022-12-23T15:46:50.540Z,21.93
2022-12-23T15:49:18.703Z,21.67
2022-12-23T15:52:07.058Z,21.03
2022-12-23T15:54:36.824Z,18.47
2022-12-23T15:57:05.390Z,19.10
2022-12-23T15:59:35.753Z,18.37
2022-12-23T16:05:27.136Z,18.23
2022-12-23T16:08:08.746Z,17.43
2022-12-23T16:10:36.220Z,16.30
2022-12-23T16:13:03.695Z,16.27
2022-12-23T16:15:32.609Z,16.27
2022-12-23T16:18:18.943Z,15.90
2022-12-23T16:20:47.537Z,17.00
2022-12-23T16:23:15.042Z,16.50
2022-12-23T16:25:50.122Z,17.37
2022-12-23T16:28:24.137Z,16.80
2022-12-23T16:30:55.807Z,16.30
2022-12-23T16:33:25.496Z,17.93
2022-12-23T16:35:55.600Z,17.67
2022-12-23T16:38:24.593Z,21.13
2022-12-23T16:40:53.468Z,17.50
2022-12-23T16:43:21.438Z,18.03
2022-12-23T16:45:51.470Z,17.87
2022-12-23T16:48:21.102Z,18.60
2022-12-23T16:50:49.447Z,20.43
2022-12-23T16:53:16.874Z,19.93
2022-12-23T16:55:51.243Z,18.77
2022-12-23T16:58:22.521Z,20.63
2022-12-23T17:00:50.246Z,18.33
2022-12-23T17:03:18.938Z,16.20
2022-12-23T17:05:46.844Z,15.90
2022-12-23T17:08:14.289Z,17.00
2022-12-23T17:10:42.285Z,14.93
2022-12-23T17:13:17.493Z,15.67
2022-12-23T17:15:45.053Z,15.67
2022-12-23T17:18:17.485Z,15.23
2022-12-23T17:20:45.843Z,15.93
2022-12-23T17:23:23.919Z,16.20
2022-12-23T17:25:52.184Z,15.70
2022-12-23T17:28:20.320Z,16.73
2022-12-23T17:30:47.635Z,15.00
2022-12-23T17:33:18.002Z,15.93
2022-12-23T17:35:45.486Z,15.60
2022-12-23T17:38:17.161Z,16.90
2022-12-23T17:40:45.634Z,15.30
2022-12-23T17:43:14.278Z,17.23
2022-12-23T17:45:41.835Z,18.23
2022-12-23T17:48:19.938Z,18.90
2022-12-23T17:50:48.170Z,20.57
2022-12-23T17:53:16.093Z,18.40
2022-12-23T17:55:43.929Z,19.67
2022-12-23T17:58:11.657Z,20.20
2022-12-23T18:00:39.274Z,19.70
2022-12-23T18:03:07.006Z,18.97
2022-12-23T18:05:35.528Z,19.93
2022-12-23T18:08:03.592Z,20.23
2022-12-23T18:10:33.469Z,20.03
2022-12-23T18:13:02.399Z,20.27
2022-12-23T18:15:40.788Z,21.80
2022-12-23T18:18:19.102Z,19.60
2022-12-23T18:20:52.834Z,21.33
2022-12-23T18:23:23.151Z,23.60
2022-12-23T18:25:50.678Z,23.53
2022-12-23T18:28:17.980Z,26.90
2022-12-23T18:30:45.606Z,27.30
2022-12-23T18:33:13.565Z,24.43
2022-12-23T18:35:45.180Z,25.30
2022-12-23T18:38:12.657Z,24.90
2022-12-23T18:40:40.558Z,24.50
2022-12-23T18:43:08.064Z,25.83
2022-12-23T18:45:36.742Z,25.10
2022-12-23T18:48:05.559Z,25.80
2022-12-23T18:50:33.121Z,25.27
2022-12-23T18:53:00.988Z,24.23
2022-12-23T18:55:30.248Z,24.73
2022-12-23T18:57:58.668Z,24.53
2022-12-23T19:00:27.569Z,26.63
2022-12-23T19:02:55.330Z,27.63
2022-12-23T19:05:25.055Z,26.67
2022-12-23T19:07:52.997Z,25.03
2022-12-23T19:10:25.555Z,27.57
2022-12-23T19:12:53.357Z,27.67
2022-12-23T19:15:21.433Z,29.03
2022-12-23T19:17:50.352Z,32.63
2022-12-23T19:20:18.485Z,25.00
2022-12-23T19:22:45.956Z,24.70
2022-12-23T19:25:14.170Z,24.57
2022-12-23T19:27:42.151Z,24.40
2022-12-23T19:30:11.895Z,22.93
2022-12-23T19:32:39.215Z,20.67
2022-12-23T19:35:06.731Z,22.17
2022-12-23T19:37:34.643Z,19.27
2022-12-23T19:40:02.016Z,19.90
2022-12-23T19:42:29.338Z,18.27
2022-12-23T19:44:56.767Z,18.83
2022-12-23T19:47:24.118Z,19.83
2022-12-23T19:49:51.455Z,19.37
2022-12-23T19:52:18.793Z,19.37
2022-12-23T19:54:46.280Z,19.93
2022-12-23T19:57:13.654Z,22.10
2022-12-23T19:59:40.978Z,20.97
2022-12-23T20:02:10.780Z,24.97
2022-12-23T20:04:38.066Z,22.93
2022-12-23T20:07:05.336Z,20.73
2022-12-23T20:09:32.606Z,20.13
2022-12-23T20:11:59.922Z,19.73
2022-12-23T20:14:32.074Z,18.50
2022-12-23T20:17:01.251Z,20.33
2022-12-23T20:19:28.664Z,19.03
2022-12-23T20:21:55.934Z,22.83
2022-12-23T20:24:23.204Z,18.87
2022-12-23T20:26:50.512Z,18.57
2022-12-23T20:29:17.776Z,21.63
2022-12-23T20:31:45.645Z,17.47
2022-12-23T20:34:15.779Z,19.40
2022-12-23T20:36:43.319Z,19.33
2022-12-23T20:39:10.696Z,20.37
2022-12-23T20:41:38.248Z,19.60
2022-12-23T20:46:53.018Z,17.30
2022-12-23T20:49:20.472Z,19.40
2022-12-23T20:51:47.877Z,20.00
2022-12-23T20:54:15.631Z,19.77
2022-12-23T20:56:43.070Z,20.10
2022-12-23T20:59:10.476Z,20.90
2022-12-23T21:01:39.111Z,22.13
2022-12-23T21:04:08.113Z,21.83
2022-12-23T21:06:36.002Z,19.63
2022-12-23T21:09:04.982Z,21.10
2022-12-23T21:11:33.637Z,19.93
2022-12-23T21:14:06.358Z,20.97
2022-12-23T21:16:35.012Z,20.90
2022-12-23T21:19:02.739Z,19.63
2022-12-23T21:21:31.940Z,19.73
2022-12-23T21:24:00.888Z,21.20
2022-12-23T21:26:29.341Z,21.13
2022-12-23T21:29:00.654Z,20.63
2022-12-23T21:31:28.922Z,22.63
2022-12-23T21:33:56.645Z,24.20
2022-12-23T21:36:26.682Z,24.50
2022-12-23T21:38:55.736Z,25.20
2022-12-23T21:41:24.474Z,24.50
2022-12-23T21:43:52.478Z,26.00
2022-12-23T21:46:21.296Z,26.30
2022-12-23T21:48:49.203Z,25.57
2022-12-23T21:51:21.986Z,22.70
2022-12-23T21:53:50.854Z,22.90
2022-12-23T21:56:26.416Z,22.97
2022-12-23T21:59:04.466Z,23.77
2022-12-23T22:01:32.444Z,25.17
2022-12-23T22:04:00.193Z,25.10
2022-12-23T22:06:28.765Z,24.10
2022-12-23T22:08:56.560Z,23.77
2022-12-23T22:11:25.465Z,23.33
2022-12-23T22:13:53.136Z,23.83
2022-12-23T22:16:21.732Z,22.57
2022-12-23T22:18:49.743Z,23.00
2022-12-23T22:21:19.010Z,23.43
2022-12-23T22:23:46.654Z,24.07
2022-12-23T22:26:20.224Z,22.90
2022-12-23T22:28:51.540Z,22.67
2022-12-23T22:31:20.712Z,22.37
2022-12-23T22:33:48.400Z,22.67
2022-12-23T22:36:16.709Z,22.63
2022-12-23T22:38:44.574Z,23.30
2022-12-23T22:41:12.138Z,22.30
2022-12-23T22:43:39.788Z,24.10
2022-12-23T22:46:07.241Z,27.87
2022-12-23T22:48:34.874Z,24.03
2022-12-23T22:51:03.120Z,22.77
2022-12-23T22:53:30.509Z,23.80
2022-12-23T22:55:58.771Z,24.77
2022-12-23T22:58:26.758Z,23.87
2022-12-23T23:00:54.163Z,31.33
2022-12-23T23:03:21.685Z,25.47
2022-12-23T23:06:06.993Z,24.07
2022-12-23T23:08:34.993Z,25.00
2022-12-23T23:11:03.397Z,27.00
2022-12-23T23:13:32.155Z,24.67
2022-12-23T23:15:59.559Z,25.43
2022-12-23T23:18:26.980Z,26.23
2022-12-23T23:20:54.385Z,25.43
2022-12-23T23:23:22.121Z,24.13
2022-12-23T23:25:49.494Z,23.83
2022-12-23T23:28:17.154Z,23.17
2022-12-23T23:30:44.636Z,24.67
2022-12-23T23:33:12.206Z,26.43
2022-12-23T23:35:39.586Z,24.40
2022-12-23T23:38:07.031Z,24.27
2022-12-23T23:40:34.512Z,26.43
2022-12-23T23:43:01.865Z,22.27
2022-12-23T23:45:30.161Z,18.87
2022-12-23T23:47:57.560Z,15.93
2022-12-23T23:50:24.988Z,14.63
2022-12-23T23:52:52.355Z,12.83
2022-12-23T23:55:19.825Z,11.87
2022-12-23T23:57:47.318Z,12.30
